Time;durP1;ratioP1;P1;durP2;ratioP2;P2;SDS_P1;SDS_P2;PMS_P1;PMS_P2;Temp;Humidity;BMP_temperature;BMP_pressure;BME280_temperature;BME280_humidity;BME280_pressure;Samples;Min_cycle;Max_cycle;Signal;HPM_P1;HPM_P2
2022/12/27 10:17:56;;;;;;;7.63;4.30;;;;;;;14.24;45.70;95129.44;2581320;54;20330;-79
2022/12/27 10:20:37;;;;;;;6.93;4.37;;;;;;;14.41;43.86;95136.31;2617686;46;20164;-80
2022/12/27 10:23:11;;;;;;;5.93;4.67;;;;;;;14.60;44.63;95128.22;2616138;54;20160;-82
2022/12/27 10:25:41;;;;;;;7.37;4.90;;;;;;;14.54;43.34;95137.34;2617160;54;20655;-83
2022/12/27 10:28:17;;;;;;;5.77;4.87;;;;;;;14.29;42.76;95132.41;2618739;47;21043;-82
2022/12/27 10:30:46;;;;;;;4.33;3.67;;;;;;;14.49;45.04;95124.38;2616964;54;20817;-79
2022/12/27 10:33:23;;;;;;;6.87;4.23;;;;;;;14.53;43.08;95135.88;2617026;47;20148;-79
2022/12/27 10:35:51;;;;;;;5.43;4.33;;;;;;;14.21;43.99;95070.25;2617727;54;20152;-80
2022/12/27 10:38:21;;;;;;;7.00;3.93;;;;;;;14.55;43.34;95139.50;2618197;54;20206;-82
2022/12/27 10:40:56;;;;;;;6.90;5.43;;;;;;;14.05;42.85;95079.09;2618693;39;20534;-78
2022/12/27 10:43:29;;;;;;;10.93;7.03;;;;;;;14.32;43.21;95119.66;2618294;39;20890;-78
2022/12/27 10:46:14;;;;;;;7.83;6.63;;;;;;;14.27;44.09;95138.75;2617860;47;20183;-79
2022/12/27 10:48:56;;;;;;;10.57;6.60;;;;;;;14.10;43.59;95146.16;2618275;54;20180;-80
2022/12/27 10:51:27;;;;;;;8.87;7.13;;;;;;;13.96;43.98;95114.44;2619928;47;20195;-80
2022/12/27 10:54:04;;;;;;;8.83;6.17;;;;;;;13.67;44.33;95112.94;2622145;54;20163;-80
2022/12/27 10:56:37;;;;;;;17.97;5.37;;;;;;;13.69;45.95;95075.28;2621961;54;20165;-79
2022/12/27 10:59:15;;;;;;;11.83;8.63;;;;;;;14.17;44.80;95096.50;2619647;47;20156;-79
2022/12/27 11:01:45;;;;;;;10.60;7.17;;;;;;;13.73;44.10;95081.09;2619425;54;20153;-79
2022/12/27 11:04:20;;;;;;;13.27;9.10;;;;;;;13.55;44.52;95080.56;2619554;46;20157;-80
2022/12/27 11:06:50;;;;;;;8.73;7.93;;;;;;;13.87;45.52;95098.53;2619078;47;20174;-79
2022/12/27 11:09:30;;;;;;;21.33;8.13;;;;;;;14.36;45.77;95123.31;2619044;47;20280;-79
2022/12/27 11:12:22;;;;;;;11.77;8.83;;;;;;;14.04;44.80;95088.31;2619445;47;20160;-79
2022/12/27 11:15:00;;;;;;;9.73;8.80;;;;;;;14.09;44.77;95098.41;2618576;47;20171;-80
2022/12/27 11:17:36;;;;;;;11.63;7.77;;;;;;;13.33;45.64;95061.50;2618070;54;20188;-80
2022/12/27 11:20:22;;;;;;;9.20;8.10;;;;;;;13.02;46.28;95044.91;2619177;47;20156;-81
2022/12/27 11:22:54;;;;;;;10.10;7.47;;;;;;;13.62;47.51;95108.53;2622953;47;20167;-78
2022/12/27 11:25:23;;;;;;;10.03;7.63;;;;;;;13.52;44.46;95046.38;2623968;47;20169;-80
2022/12/27 11:27:54;;;;;;;9.73;7.07;;;;;;;14.01;45.98;95106.75;2620662;47;20156;-78
2022/12/27 11:30:27;;;;;;;10.53;8.17;;;;;;;12.67;46.03;95023.28;2618377;47;20165;-79
2022/12/27 11:32:56;;;;;;;10.07;7.20;;;;;;;13.42;47.62;95088.03;2618241;47;20164;-80
2022/12/27 11:35:27;;;;;;;10.43;7.27;;;;;;;13.57;45.27;95067.13;2618295;39;20643;-79
2022/12/27 11:37:56;;;;;;;15.77;9.13;;;;;;;14.19;45.49;95113.66;2617815;54;20233;-80
2022/12/27 11:40:33;;;;;;;11.93;8.40;;;;;;;13.68;44.81;95066.00;2618110;54;20145;-79
2022/12/27 11:43:07;;;;;;;12.20;8.13;;;;;;;13.87;45.51;95087.16;2618322;47;20236;-79
2022/12/27 11:45:42;;;;;;;10.67;8.80;;;;;;;14.22;44.38;95109.44;2617912;47;20148;-79
2022/12/27 11:48:22;;;;;;;7.07;6.40;;;;;;;14.09;44.99;95058.53;2617556;54;20753;-79
2022/12/27 11:51:14;;;;;;;14.57;9.97;;;;;;;14.50;45.15;95109.44;2617806;47;20628;-79
2022/12/27 11:54:03;;;;;;;10.73;7.93;;;;;;;13.97;45.16;95041.84;2617550;54;20678;-79
2022/12/27 11:56:33;;;;;;;9.87;7.97;;;;;;;14.37;43.84;95119.06;2617411;47;20152;-79
2022/12/27 11:59:32;;;;;;;14.00;7.63;;;;;;;14.42;45.94;95105.69;2617633;54;20156;-79
2022/12/27 12:02:30;;;;;;;14.70;9.47;;;;;;;14.12;43.35;95066.44;2617383;54;20191;-80
2022/12/27 12:05:31;;;;;;;14.23;7.67;;;;;;;14.14;46.00;95075.06;2617788;39;20541;-79
2022/12/27 12:08:26;;;;;;;13.97;8.50;;;;;;;13.56;47.31;95133.97;2617244;46;20168;-80
2022/12/27 12:11:11;;;;;;;11.53;7.57;;;;;;;13.93;45.21;95115.09;2616805;47;20164;-79
2022/12/27 12:14:07;;;;;;;10.97;8.33;;;;;;;13.85;46.71;95061.47;2614555;54;20160;-81
2022/12/27 12:17:00;;;;;;;13.83;7.33;;;;;;;13.91;45.36;95073.03;2617596;54;20156;-79
2022/12/27 12:19:49;;;;;;;21.33;7.27;;;;;;;14.10;44.66;95091.31;2617870;39;20572;-79
2022/12/27 12:22:36;;;;;;;8.63;7.77;;;;;;;13.99;45.16;95098.88;2617420;47;20248;-79
2022/12/27 12:25:40;;;;;;;12.93;8.57;;;;;;;14.05;45.37;95116.13;2617421;54;20178;-79
2022/12/27 12:28:38;;;;;;;9.90;7.30;;;;;;;14.21;46.44;95124.38;2617573;47;20149;-79
2022/12/27 12:31:23;;;;;;;16.73;7.37;;;;;;;14.16;45.73;95068.69;2617576;47;20240;-78
2022/12/27 12:34:11;;;;;;;9.30;7.47;;;;;;;13.93;45.93;95044.63;2617516;54;20156;-79
2022/12/27 12:37:02;;;;;;;13.37;6.83;;;;;;;14.42;47.04;95109.25;2617439;47;20161;-79
2022/12/27 12:39:51;;;;;;;13.07;7.30;;;;;;;14.35;46.68;95118.31;2617658;54;20304;-79
2022/12/27 12:42:35;;;;;;;6.77;5.80;;;;;;;14.00;47.00;95071.84;2618202;47;20145;-78
2022/12/27 12:45:25;;;;;;;11.30;6.50;;;;;;;14.42;47.13;95142.72;2619569;46;20256;-78
2022/12/27 12:48:14;;;;;;;10.33;7.80;;;;;;;14.11;47.52;95104.88;2617671;47;20175;-77
2022/12/27 12:51:06;;;;;;;9.77;6.77;;;;;;;14.14;48.76;95132.03;2617748;47;20171;-79
2022/12/27 12:53:52;;;;;;;7.53;5.93;;;;;;;13.46;49.36;95045.50;2618445;47;20149;-79
2022/12/27 12:56:42;;;;;;;8.03;6.53;;;;;;;13.76;49.33;95089.00;2617706;47;20152;-79
2022/12/27 12:59:28;;;;;;;8.20;6.30;;;;;;;14.02;49.20;95137.41;2617736;47;20149;-79
2022/12/27 13:02:08;;;;;;;3.87;3.57;;;;;;;13.66;49.14;95088.00;2617702;47;20769;-79
2022/12/27 13:04:51;;;;;;;2.93;2.07;;;;;;;13.85;49.50;95126.97;2617524;47;20194;-78
2022/12/27 13:07:41;;;;;;;3.50;3.20;;;;;;;13.72;50.28;95151.53;2617460;47;20248;-78
2022/12/27 13:10:34;;;;;;;4.73;2.53;;;;;;;13.30;50.12;95087.69;2617469;47;20180;-78
2022/12/27 13:13:14;;;;;;;2.37;1.47;;;;;;;12.91;50.58;95058.09;2617435;54;20161;-79
2022/12/27 13:15:58;;;;;;;4.93;1.60;;;;;;;13.53;50.79;95141.72;2617660;54;20152;-79
2022/12/27 13:18:36;;;;;;;1.67;1.60;;;;;;;13.62;51.06;95159.78;2618287;47;20192;-79
2022/12/27 13:21:15;;;;;;;1.47;1.37;;;;;;;13.17;51.37;95109.38;2619209;39;20556;-78
2022/12/27 13:23:57;;;;;;;2.20;1.97;;;;;;;12.84;52.32;95106.94;2618428;47;20291;-79
2022/12/27 13:26:36;;;;;;;1.33;1.20;;;;;;;13.26;51.76;95182.16;2618802;54;20810;-80
2022/12/27 13:29:31;;;;;;;0.90;0.90;;;;;;;12.61;52.47;95122.53;2618437;47;20145;-80
2022/12/27 13:32:13;;;;;;;0.93;0.83;;;;;;;12.66;53.71;95192.34;2618231;47;20149;-79
2022/12/27 13:34:50;;;;;;;1.47;1.37;;;;;;;12.25;53.38;95128.50;2618191;47;20275;-80
2022/12/27 13:37:30;;;;;;;0.83;0.83;;;;;;;12.44;54.23;95195.88;2618254;47;20152;-80
2022/12/27 13:40:17;;;;;;;0.73;0.73;;;;;;;12.31;54.33;95167.72;2618042;47;20156;-79
2022/12/27 13:43:08;;;;;;;1.43;0.87;;;;;;;12.15;54.26;95147.31;2618935;47;20148;-79
2022/12/27 13:45:57;;;;;;;1.03;1.03;;;;;;;12.61;54.44;95217.03;2618612;47;20690;-78
2022/12/27 13:48:57;;;;;;;0.80;0.80;;;;;;;12.57;54.72;95193.47;2617325;54;20758;-76
2022/12/27 13:51:43;;;;;;;4.37;1.30;;;;;;;12.72;54.29;95210.28;2617618;47;20156;-77
2022/12/27 13:54:43;;;;;;;1.53;1.43;;;;;;;12.29;54.09;95150.63;2618510;47;20164;-77
2022/12/27 13:57:24;;;;;;;0.80;0.80;;;;;;;12.62;54.50;95212.81;2618244;46;20272;-76
2022/12/27 14:00:19;;;;;;;1.20;1.20;;;;;;;12.88;54.04;95229.28;2618261;47;20164;-76
2022/12/27 14:03:33;;;;;;;1.57;1.47;;;;;;;12.78;54.38;95209.78;2618994;52;20188;-76
2022/12/27 14:06:38;;;;;;;0.97;0.97;;;;;;;12.30;55.03;95163.44;2617066;47;20168;-77
2022/12/27 14:09:50;;;;;;;1.03;1.03;;;;;;;12.64;55.06;95218.56;2618103;47;20244;-80
2022/12/27 14:12:39;;;;;;;1.20;1.20;;;;;;;12.67;55.28;95227.88;2617955;47;20243;-81
2022/12/27 14:15:14;;;;;;;2.20;1.67;;;;;;;12.77;54.77;95223.25;2617963;47;20191;-81
2022/12/27 14:17:53;;;;;;;2.30;1.33;;;;;;;12.40;56.34;95212.78;2615330;54;20823;-80
2022/12/27 14:20:36;;;;;;;0.80;0.80;;;;;;;12.45;56.21;95217.22;2615417;47;20175;-79
2022/12/27 14:23:28;;;;;;;7.40;0.87;;;;;;;12.52;56.48;95226.69;2613613;47;20153;-79
2022/12/27 14:26:30;;;;;;;2.20;1.60;;;;;;;12.12;57.30;95189.09;2614013;47;20228;-78
2022/12/27 14:29:35;;;;;;;1.13;1.13;;;;;;;12.23;57.54;95227.81;2614136;54;20179;-80
2022/12/27 14:32:54;;;;;;;0.90;0.90;;;;;;;11.98;58.09;95203.50;2623082;47;20239;-87
2022/12/27 14:35:43;;;;;;;1.63;1.63;;;;;;;12.01;57.47;95190.84;2621437;47;20195;-84
2022/12/27 14:38:54;;;;;;;1.70;1.37;;;;;;;11.96;58.35;95214.78;2621687;39;20888;-84
2022/12/27 14:42:01;;;;;;;1.50;1.37;;;;;;;12.15;58.59;95230.38;2617971;54;20168;-87
2022/12/27 14:44:59;;;;;;;1.27;1.27;;;;;;;12.33;57.45;95231.00;2617811;39;20634;-88
2022/12/27 14:48:17;;;;;;;1.97;1.40;;;;;;;12.23;58.37;95241.28;2614241;47;20223;-85
2022/12/27 14:51:21;;;;;;;1.88;1.77;;;;;;;12.09;59.52;95242.22;2617831;47;20384;-84
2022/12/27 14:54:32;;;;;;;2.33;2.23;;;;;;;11.84;58.89;95197.31;2614771;54;20235;-86
2022/12/27 14:57:09;;;;;;;0.67;0.67;;;;;;;12.03;59.57;95247.69;2620646;39;20546;-83
2022/12/27 14:59:49;;;;;;;3.07;2.87;;;;;;;12.16;58.66;95239.63;2623399;47;20144;-86
2022/12/27 15:02:35;;;;;;;1.43;1.33;;;;;;;11.89;59.47;95213.09;2623030;46;20172;-83
2022/12/27 15:05:20;;;;;;;1.97;1.67;;;;;;;12.07;59.63;95245.00;2619104;54;20172;-84
2022/12/27 15:08:17;;;;;;;2.80;2.33;;;;;;;12.26;58.85;95262.69;2618014;47;20165;-84
2022/12/27 15:11:04;;;;;;;5.10;1.63;;;;;;;11.98;59.57;95246.09;2623882;54;20157;-85
2022/12/27 15:13:48;;;;;;;2.67;2.57;;;;;;;11.62;60.89;95231.25;2622581;47;20145;-86
2022/12/27 15:16:25;;;;;;;1.80;1.70;;;;;;;11.92;59.53;95251.53;2629447;46;20153;-85
2022/12/27 15:19:17;;;;;;;0.50;0.50;;;;;;;11.64;61.17;95242.69;2625657;54;20261;-84
2022/12/27 15:22:03;;;;;;;1.33;1.13;;;;;;;11.14;63.02;95244.28;2619589;46;20211;-82
2022/12/27 15:24:46;;;;;;;2.13;1.10;;;;;;;11.03;62.91;95234.66;2617915;47;20192;-84
2022/12/27 15:27:26;;;;;;;3.03;1.33;;;;;;;11.00;63.37;95255.06;2617936;47;20793;-84
2022/12/27 15:30:09;;;;;;;1.20;1.20;;;;;;;10.89;62.69;95228.44;2617570;47;20199;-83
2022/12/27 15:32:59;;;;;;;1.00;1.00;;;;;;;10.68;61.76;95175.88;2620005;46;20635;-83
2022/12/27 15:35:46;;;;;;;0.53;0.53;;;;;;;11.22;61.19;95230.44;2620238;54;20695;-82
2022/12/27 15:38:17;;;;;;;1.43;1.43;;;;;;;11.30;60.45;95241.38;2616129;54;20157;-82
2022/12/27 15:41:11;;;;;;;1.47;1.33;;;;;;;11.56;59.75;95267.19;2615539;47;20169;-84
2022/12/27 15:44:02;;;;;;;1.73;1.73;;;;;;;11.54;60.47;95272.78;2615788;47;20153;-84
2022/12/27 15:46:52;;;;;;;1.70;1.60;;;;;;;11.14;59.99;95221.63;2618315;54;20165;-85
2022/12/27 15:49:53;;;;;;;1.63;1.40;;;;;;;11.50;59.65;95281.84;2615061;47;20165;-81
2022/12/27 15:52:36;;;;;;;1.50;1.40;;;;;;;11.42;58.38;95267.38;2614120;54;21111;-80
2022/12/27 15:55:26;;;;;;;1.10;1.10;;;;;;;11.54;58.24;95286.97;2613994;47;20172;-80
2022/12/27 15:58:14;;;;;;;3.60;1.20;;;;;;;11.31;58.53;95271.91;2615111;47;20150;-81
2022/12/27 16:00:48;;;;;;;0.53;0.53;;;;;;;10.94;59.32;95254.81;2614460;46;20153;-82
2022/12/27 16:03:36;;;;;;;1.20;1.20;;;;;;;11.10;59.51;95274.59;2615387;46;20408;-80
2022/12/27 16:06:06;;;;;;;0.73;0.73;;;;;;;10.97;59.43;95267.69;2614358;54;20195;-82
2022/12/27 16:08:38;;;;;;;0.67;0.67;;;;;;;11.00;59.22;95272.06;2614076;47;20295;-81
2022/12/27 16:11:10;;;;;;;1.33;0.70;;;;;;;11.00;58.96;95255.06;2614146;39;20730;-77
2022/12/27 16:13:42;;;;;;;1.63;1.53;;;;;;;11.37;57.46;95268.56;2613969;54;20145;-78
2022/12/27 16:16:55;;;;;;;1.20;1.20;;;;;;;11.63;57.21;95277.38;2613568;47;20153;-81
2022/12/27 16:19:56;;;;;;;1.57;1.47;;;;;;;11.55;57.25;95257.94;2614598;46;20647;-85
2022/12/27 16:22:38;;;;;;;1.23;1.17;;;;;;;11.23;57.45;95231.88;2615242;47;20276;-83
2022/12/27 16:25:34;;;;;;;1.70;1.70;;;;;;;11.61;57.39;95274.47;2617381;46;20194;-80
2022/12/27 16:28:06;;;;;;;1.23;1.23;;;;;;;11.64;56.84;95261.81;2617605;54;20169;-80
2022/12/27 16:30:43;;;;;;;1.00;1.00;;;;;;;11.61;56.99;95229.09;2618340;54;20187;-87
2022/12/27 16:33:39;;;;;;;1.17;1.17;;;;;;;11.93;56.32;95269.31;2619318;47;20171;-87
2022/12/27 16:36:23;;;;;;;2.60;1.50;;;;;;;12.02;55.89;95260.44;2625300;47;20240;-84
2022/12/27 16:39:07;;;;;;;0.80;0.80;;;;;;;12.12;55.69;95274.28;2622985;47;20161;-85
2022/12/27 16:41:59;;;;;;;1.30;1.27;;;;;;;12.18;55.32;95285.09;2615192;47;20487;-86
2022/12/27 16:44:40;;;;;;;2.00;1.83;;;;;;;12.07;54.95;95267.72;2618637;47;20153;-84
2022/12/27 16:47:24;;;;;;;2.03;1.93;;;;;;;11.78;56.34;95287.91;2615964;54;20279;-83
2022/12/27 16:50:37;;;;;;;2.53;1.00;;;;;;;11.81;56.72;95297.97;2619696;39;20473;-84
2022/12/27 16:53:31;;;;;;;1.00;1.00;;;;;;;11.86;56.48;95281.81;2617599;47;20291;-79
2022/12/27 16:56:14;;;;;;;1.43;1.33;;;;;;;11.88;56.66;95294.00;2616448;54;20259;-78
2022/12/27 16:58:43;;;;;;;0.97;0.97;;;;;;;12.20;55.95;95305.78;2615983;46;20691;-82
2022/12/27 17:01:53;;;;;;;1.23;1.23;;;;;;;12.12;55.58;95302.66;2617656;46;20172;-82
2022/12/27 17:04:51;;;;;;;2.27;1.47;;;;;;;11.98;56.24;95316.34;2615301;47;20152;-82
2022/12/27 17:07:49;;;;;;;1.33;1.23;;;;;;;11.94;55.95;95324.69;2615085;47;20161;-81
2022/12/27 17:10:44;;;;;;;2.67;1.63;;;;;;;11.75;56.37;95312.63;2615314;47;20184;-83
2022/12/27 17:13:17;;;;;;;1.70;1.40;;;;;;;11.82;56.24;95322.13;2615745;54;20164;-84
2022/12/27 17:15:53;;;;;;;4.70;1.90;;;;;;;11.87;56.29;95326.59;2615286;47;20159;-84
2022/12/27 17:18:31;;;;;;;2.30;2.10;;;;;;;11.63;55.93;95311.41;2615902;47;20163;-83
2022/12/27 17:21:06;;;;;;;4.00;2.33;;;;;;;11.47;56.28;95302.28;2616261;47;20198;-82
2022/12/27 17:23:42;;;;;;;1.73;1.57;;;;;;;11.41;56.65;95322.63;2616480;47;20167;-87
2022/12/27 17:26:34;;;;;;;0.90;0.90;;;;;;;11.10;56.72;95325.59;2616833;54;20195;-85
2022/12/27 17:29:16;;;;;;;1.63;1.53;;;;;;;10.94;57.23;95322.84;2615329;47;20251;-85
2022/12/27 17:31:53;;;;;;;1.30;1.30;;;;;;;10.97;57.14;95338.56;2617159;54;20171;-80
2022/12/27 17:34:35;;;;;;;1.50;1.40;;;;;;;10.96;57.51;95337.81;2614749;54;20165;-80
2022/12/27 17:37:13;;;;;;;1.30;1.30;;;;;;;11.07;56.93;95344.63;2615091;54;20659;-80
2022/12/27 17:39:58;;;;;;;3.33;2.03;;;;;;;11.02;57.05;95340.91;2615551;47;20255;-81
2022/12/27 17:45:37;;;;;;;2.77;2.60;;;;;;;10.83;57.22;95327.34;2614456;47;20152;-80
2022/12/27 17:48:20;;;;;;;1.93;1.57;;;;;;;10.66;56.97;95320.25;2615721;54;20236;-81
2022/12/27 17:50:53;;;;;;;1.37;1.27;;;;;;;10.78;57.68;95331.41;2616234;54;20157;-80
2022/12/27 17:59:03;;;;;;;0.80;0.80;;;;;;;10.61;55.50;95324.31;2617664;47;20332;-80
2022/12/27 18:01:34;;;;;;;0.85;0.85;;;;;;;10.35;55.13;95325.28;2615914;47;20948;-79
2022/12/27 18:04:05;;;;;;;0.93;0.93;;;;;;;10.66;54.66;95313.88;2616856;47;20160;-80
2022/12/27 18:06:34;;;;;;;1.80;1.70;;;;;;;10.32;54.73;95299.72;2616913;47;20145;-80
2022/12/27 18:09:03;;;;;;;0.87;0.87;;;;;;;10.41;54.57;95322.69;2617108;47;20165;-81
2022/12/27 18:11:34;;;;;;;0.70;0.70;;;;;;;10.44;54.21;95313.66;2616471;47;20149;-83
2022/12/27 18:14:06;;;;;;;0.73;0.73;;;;;;;10.53;54.64;95321.13;2616689;46;20161;-82
2022/12/27 18:16:40;;;;;;;0.90;0.90;;;;;;;10.03;54.63;95253.78;2618551;39;20513;-80
2022/12/27 18:19:08;;;;;;;1.43;1.23;;;;;;;10.40;53.91;95330.47;2617618;47;20157;-81
2022/12/27 18:21:37;;;;;;;1.43;1.37;;;;;;;10.30;54.97;95332.84;2617837;47;20179;-80
2022/12/27 18:24:25;;;;;;;1.13;1.00;;;;;;;10.09;54.54;95325.56;2617540;47;20244;-79
2022/12/27 18:27:02;;;;;;;1.27;0.93;;;;;;;10.13;55.31;95324.97;2617722;47;20172;-81
2022/12/27 18:29:33;;;;;;;0.63;0.63;;;;;;;10.12;54.32;95337.66;2618540;47;20204;-83
2022/12/27 18:32:07;;;;;;;1.07;1.07;;;;;;;10.12;54.51;95343.34;2617938;54;20179;-80
2022/12/27 18:34:40;;;;;;;1.00;1.00;;;;;;;10.22;54.38;95341.00;2618315;47;20686;-81
2022/12/27 18:37:12;;;;;;;1.07;0.77;;;;;;;10.03;53.35;95344.34;2618378;54;20156;-82
2022/12/27 18:39:43;;;;;;;0.50;0.50;;;;;;;9.89;53.96;95344.44;2618873;47;20153;-82
2022/12/27 18:42:19;;;;;;;0.80;0.80;;;;;;;10.02;53.55;95349.28;2618834;47;20168;-82
2022/12/27 18:44:55;;;;;;;0.60;0.60;;;;;;;10.09;52.31;95347.47;2618368;54;20172;-85
2022/12/27 18:47:26;;;;;;;0.80;0.80;;;;;;;9.65;52.34;95295.22;2616760;47;20694;-84
2022/12/27 18:49:57;;;;;;;0.70;0.70;;;;;;;10.05;52.66;95348.00;2617463;47;20205;-85
2022/12/27 18:52:31;;;;;;;0.50;0.50;;;;;;;10.21;53.75;95348.03;2617574;54;20965;-84
2022/12/27 18:55:15;;;;;;;1.20;1.13;;;;;;;10.13;52.88;95303.06;2616126;54;20248;-83
2022/12/27 18:57:44;;;;;;;0.87;0.87;;;;;;;10.55;51.77;95351.63;2616690;47;20248;-83
2022/12/27 19:00:24;;;;;;;1.00;1.00;;;;;;;10.59;51.09;95349.72;2617163;54;20153;-83
2022/12/27 19:02:54;;;;;;;0.73;0.73;;;;;;;10.63;51.33;95343.50;2616678;47;20183;-84
2022/12/27 19:05:29;;;;;;;0.70;0.70;;;;;;;10.46;50.12;95339.22;2618721;54;20157;-85
2022/12/27 19:08:14;;;;;;;0.57;0.57;;;;;;;10.35;51.37;95302.63;2617540;54;20191;-84
2022/12/27 19:10:50;;;;;;;1.00;0.77;;;;;;;10.47;51.57;95342.81;2618351;46;20172;-84
2022/12/27 19:13:23;;;;;;;0.70;0.70;;;;;;;10.54;51.73;95336.00;2625460;47;20172;-85
2022/12/27 19:15:56;;;;;;;0.90;0.90;;;;;;;10.68;50.05;95343.03;2621934;47;20169;-84
2022/12/27 19:18:29;;;;;;;0.70;0.70;;;;;;;10.88;50.22;95345.25;2622823;47;20152;-86
2022/12/27 19:21:00;;;;;;;0.70;0.70;;;;;;;10.64;51.27;95291.88;2621072;39;20906;-85
2022/12/27 19:23:32;;;;;;;0.60;0.60;;;;;;;11.01;50.77;95350.06;2626185;47;20156;-85
2022/12/27 19:26:06;;;;;;;0.70;0.70;;;;;;;11.16;49.56;95377.63;2624540;47;20183;-86
2022/12/27 19:28:36;;;;;;;0.93;0.93;;;;;;;10.63;50.80;95321.56;2618452;46;20615;-86
2022/12/27 19:31:23;;;;;;;6.67;1.20;;;;;;;11.10;51.15;95374.53;2619377;47;20195;-86
2022/12/27 19:33:54;;;;;;;0.63;0.63;;;;;;;11.02;49.10;95394.78;2619905;39;20551;-83
2022/12/27 19:36:28;;;;;;;0.93;0.93;;;;;;;10.98;50.50;95405.22;2617853;39;20631;-83
2022/12/27 19:38:57;;;;;;;0.93;0.93;;;;;;;10.64;52.44;95404.47;2617478;54;20202;-83
2022/12/27 19:41:26;;;;;;;0.93;0.93;;;;;;;10.15;52.14;95337.13;2617568;54;20156;-84
2022/12/27 19:43:56;;;;;;;0.90;0.90;;;;;;;10.73;51.43;95408.38;2616658;47;20172;-85
2022/12/27 19:46:27;;;;;;;2.10;1.53;;;;;;;10.45;50.30;95373.84;2615957;47;20643;-84
2022/12/27 19:48:56;;;;;;;1.37;1.27;;;;;;;10.59;52.69;95358.22;2619194;47;20226;-86
2022/12/27 19:51:26;;;;;;;1.90;1.77;;;;;;;10.89;51.13;95381.47;2619674;47;20196;-85
2022/12/27 19:53:55;;;;;;;1.67;1.57;;;;;;;11.33;50.84;95430.09;2620190;46;20208;-85
2022/12/27 19:56:24;;;;;;;1.73;1.63;;;;;;;11.20;50.03;95408.28;2617485;54;20157;-86
2022/12/27 19:58:53;;;;;;;3.53;1.57;;;;;;;10.69;49.99;95355.81;2618026;47;20161;-87
2022/12/27 20:01:21;;;;;;;7.43;1.58;;;;;;;10.49;49.05;95369.13;2616369;54;21005;-81
2022/12/27 20:03:53;;;;;;;0.90;0.90;;;;;;;10.45;49.68;95411.41;2616234;47;20156;-86
2022/12/27 20:06:23;;;;;;;1.20;0.73;;;;;;;9.66;50.35;95368.13;2616638;46;20192;-86
2022/12/27 20:08:52;;;;;;;2.53;1.27;;;;;;;10.04;51.53;95413.72;2616016;47;20164;-83
2022/12/27 20:11:25;;;;;;;1.10;1.00;;;;;;;9.95;51.18;95424.69;2616593;39;20569;-84
2022/12/27 20:13:53;;;;;;;1.00;1.00;;;;;;;9.78;51.66;95396.25;2615970;47;20398;-83
2022/12/27 20:16:22;;;;;;;1.13;1.13;;;;;;;9.89;51.89;95396.09;2616632;47;20292;-85
2022/12/27 20:18:54;;;;;;;0.80;0.80;;;;;;;9.98;51.21;95400.75;2616649;31;20637;-84
2022/12/27 20:21:23;;;;;;;0.93;0.93;;;;;;;10.04;52.30;95414.47;2617207;54;20203;-85
2022/12/27 20:23:52;;;;;;;0.73;0.73;;;;;;;9.97;51.89;95416.28;2617189;47;20161;-85
2022/12/27 20:26:23;;;;;;;1.80;1.20;;;;;;;9.96;52.68;95408.44;2616448;54;20755;-84
2022/12/27 20:28:53;;;;;;;1.23;1.03;;;;;;;9.89;54.24;95410.25;2616716;54;20156;-85
2022/12/27 20:31:23;;;;;;;0.53;0.53;;;;;;;9.53;53.52;95402.88;2623213;54;20164;-85
2022/12/27 20:33:56;;;;;;;0.43;0.43;;;;;;;9.90;53.53;95422.28;2620755;47;20159;-84
2022/12/27 20:36:26;;;;;;;1.80;1.15;;;;;;;10.15;52.79;95436.19;2615329;47;20435;-83
2022/12/27 20:38:55;;;;;;;1.73;1.53;;;;;;;10.31;51.67;95393.78;2615472;54;20156;-85
2022/12/27 20:41:24;;;;;;;0.93;0.93;;;;;;;9.90;51.86;95351.56;2616745;54;20168;-85
2022/12/27 20:43:56;;;;;;;1.30;1.30;;;;;;;10.39;52.47;95430.94;2616101;46;20161;-83
2022/12/27 20:46:25;;;;;;;1.40;1.30;;;;;;;9.86;53.51;95388.13;2616123;46;20471;-86
2022/12/27 20:48:58;;;;;;;1.60;1.50;;;;;;;9.97;52.65;95402.16;2617868;39;20683;-85
2022/12/27 20:51:30;;;;;;;0.60;0.60;;;;;;;10.07;52.30;95437.94;2617150;47;20207;-84
2022/12/27 20:54:02;;;;;;;1.27;1.27;;;;;;;9.78;53.70;95450.75;2615916;47;20290;-84
2022/12/27 20:56:33;;;;;;;0.90;0.90;;;;;;;8.93;54.01;95352.56;2616568;47;20153;-85
2022/12/27 20:59:01;;;;;;;1.00;0.97;;;;;;;9.61;55.21;95445.66;2616435;47;20244;-86
2022/12/27 21:01:30;;;;;;;1.27;1.07;;;;;;;9.24;55.93;95423.38;2615703;54;20149;-84
2022/12/27 21:04:02;;;;;;;1.33;1.27;;;;;;;9.23;56.70;95419.81;2616002;47;20164;-86
2022/12/27 21:06:31;;;;;;;1.17;1.17;;;;;;;9.78;56.24;95450.00;2616775;54;20156;-85
2022/12/27 21:09:00;;;;;;;0.83;0.83;;;;;;;9.78;55.42;95450.00;2616105;47;20144;-85
2022/12/27 21:11:31;;;;;;;0.80;0.80;;;;;;;9.74;54.99;95461.84;2615871;54;20178;-84
2022/12/27 21:14:01;;;;;;;1.00;1.00;;;;;;;9.81;55.53;95452.31;2615770;54;20148;-85
2022/12/27 21:16:32;;;;;;;1.10;1.10;;;;;;;9.73;55.13;95463.22;2615600;54;20180;-83
2022/12/27 21:19:04;;;;;;;1.67;1.57;;;;;;;9.24;56.97;95469.31;2615737;47;20160;-83
2022/12/27 21:21:34;;;;;;;1.37;1.30;;;;;;;9.03;59.19;95447.03;2616304;47;20156;-83
2022/12/27 21:24:03;;;;;;;1.00;1.00;;;;;;;8.93;58.80;95429.56;2617116;47;20157;-84
2022/12/27 21:26:34;;;;;;;0.73;0.73;;;;;;;9.05;58.58;95452.78;2617657;47;20157;-84
2022/12/27 21:29:04;;;;;;;0.93;0.93;;;;;;;9.06;59.60;95468.38;2618208;47;20145;-85
2022/12/27 21:31:34;;;;;;;0.90;0.90;;;;;;;8.91;60.24;95457.72;2618519;47;20144;-85
2022/12/27 21:34:06;;;;;;;0.60;0.60;;;;;;;8.72;61.73;95458.88;2617158;47;20155;-82
2022/12/27 21:36:37;;;;;;;1.80;1.70;;;;;;;8.32;62.02;95392.56;2619461;54;20152;-85
2022/12/27 21:39:07;;;;;;;1.20;1.20;;;;;;;8.82;62.32;95467.88;2619779;54;20155;-84
2022/12/27 21:41:38;;;;;;;1.63;1.53;;;;;;;8.81;61.82;95454.38;2619313;47;20156;-84
2022/12/27 21:44:07;;;;;;;1.00;1.00;;;;;;;9.16;62.17;95480.19;2619807;47;20709;-84
2022/12/27 21:46:38;;;;;;;1.17;1.17;;;;;;;9.39;61.27;95476.41;2619644;47;20161;-84
2022/12/27 21:49:11;;;;;;;3.03;1.40;;;;;;;9.40;60.68;95492.03;2622545;46;20149;-83
2022/12/27 21:51:42;;;;;;;2.00;1.90;;;;;;;9.20;61.14;95499.47;2626620;39;20565;-84
2022/12/27 21:54:12;;;;;;;1.93;1.83;;;;;;;8.61;62.33;95436.41;2620108;47;20195;-84
2022/12/27 21:56:41;;;;;;;0.93;0.93;;;;;;;9.22;62.01;95502.41;2619653;47;20144;-84
2022/12/27 21:59:10;;;;;;;1.00;1.00;;;;;;;9.32;61.85;95483.13;2619927;54;20156;-83
2022/12/27 22:01:41;;;;;;;0.83;0.83;;;;;;;8.97;62.33;95488.38;2619188;46;20149;-83
2022/12/27 22:04:12;;;;;;;1.07;1.07;;;;;;;8.80;63.96;95473.41;2621001;47;20160;-84
2022/12/27 22:06:41;;;;;;;1.13;1.13;;;;;;;8.29;64.53;95419.19;2621445;54;20156;-83
2022/12/27 22:09:11;;;;;;;0.87;0.87;;;;;;;8.92;64.13;95498.75;2621581;47;20164;-83
2022/12/27 22:11:41;;;;;;;1.27;1.27;;;;;;;8.67;65.56;95479.78;2619474;54;20173;-83
2022/12/27 22:14:09;;;;;;;1.07;1.07;;;;;;;8.90;64.84;95501.47;2618951;54;20163;-83
2022/12/27 22:16:40;;;;;;;1.63;1.63;;;;;;;8.63;64.00;95422.38;2619449;54;20152;-82
2022/12/27 22:19:13;;;;;;;1.07;1.00;;;;;;;8.85;64.21;95477.94;2619150;54;20149;-84
2022/12/27 22:21:43;;;;;;;1.20;1.20;;;;;;;8.57;65.73;95461.59;2619656;46;20165;-84
2022/12/27 22:24:18;;;;;;;1.40;1.30;;;;;;;8.94;65.28;95490.38;2619216;46;20161;-85
2022/12/27 22:26:47;;;;;;;1.63;1.53;;;;;;;9.00;64.95;95498.44;2619039;47;20148;-85
2022/12/27 22:29:16;;;;;;;1.40;1.33;;;;;;;8.89;65.35;95492.25;2618816;54;20149;-84
2022/12/27 22:31:45;;;;;;;2.23;1.23;;;;;;;8.46;67.22;95489.28;2618899;47;20145;-84
2022/12/27 22:34:16;;;;;;;0.80;0.80;;;;;;;8.01;67.28;95421.22;2618710;54;20157;-84
2022/12/27 22:36:45;;;;;;;2.00;1.93;;;;;;;8.58;65.77;95434.81;2618478;54;20155;-83
2022/12/27 22:39:14;;;;;;;1.17;1.17;;;;;;;8.79;65.30;95443.72;2618680;46;20211;-84
2022/12/27 22:41:42;;;;;;;1.23;1.23;;;;;;;8.94;65.62;95498.84;2619128;46;20271;-83
2022/12/27 22:44:13;;;;;;;1.33;1.30;;;;;;;8.96;65.49;95478.44;2618485;47;20279;-83
2022/12/27 22:46:43;;;;;;;1.17;1.10;;;;;;;8.44;64.95;95395.28;2618484;54;20300;-85
2022/12/27 22:49:11;;;;;;;1.17;1.17;;;;;;;8.92;64.40;95425.28;2618765;47;20161;-84
2022/12/27 22:51:43;;;;;;;1.13;1.13;;;;;;;9.45;64.00;95498.59;2619934;47;20730;-83
2022/12/27 22:54:12;;;;;;;1.43;1.40;;;;;;;9.59;63.52;95502.13;2619389;39;20566;-83
2022/12/27 22:56:42;;;;;;;1.17;1.10;;;;;;;9.72;63.19;95509.09;2617998;54;20248;-83